Time;durP1;ratioP1;P1;durP2;ratioP2;P2;SDS_P1;SDS_P2;PMS_P1;PMS_P2;Temp;Humidity;BMP_temperature;BMP_pressure;BME280_temperature;BME280_humidity;BME280_pressure;Samples;Min_cycle;Max_cycle;Signal;HPM_P1;HPM_P2
2023/09/01 00:01:34;;;;;;;1.80;1.23;;;23.80;48.00;;;;;;5149402;27;46309;-75
2023/09/01 00:04:01;;;;;;;1.80;1.20;;;23.80;48.10;;;;;;5149234;27;45159;-75
2023/09/01 00:06:28;;;;;;;1.52;1.20;;;23.80;48.10;;;;;;5149314;27;45343;-75
2023/09/01 00:08:55;;;;;;;1.98;1.52;;;23.80;48.10;;;;;;5148528;27;45362;-75
2023/09/01 00:11:22;;;;;;;1.75;1.25;;;23.80;48.20;;;;;;5149150;27;45489;-75
2023/09/01 00:13:49;;;;;;;1.52;1.10;;;23.80;48.10;;;;;;5149239;27;45321;-75
2023/09/01 00:16:17;;;;;;;1.10;1.00;;;23.80;48.20;;;;;;5149147;27;45300;-75
2023/09/01 00:18:44;;;;;;;1.48;1.10;;;23.80;48.10;;;;;;5149071;27;45332;-75
2023/09/01 00:21:11;;;;;;;2.28;1.17;;;23.70;48.20;;;;;;5149173;27;45543;-74
2023/09/01 00:23:38;;;;;;;1.38;1.25;;;23.70;48.20;;;;;;5148839;27;45221;-74
2023/09/01 00:26:04;;;;;;;1.67;1.02;;;23.70;48.20;;;;;;5149050;27;45331;-74
2023/09/01 00:28:31;;;;;;;1.52;1.10;;;23.70;48.30;;;;;;5149009;27;45364;-75
2023/09/01 00:30:59;;;;;;;1.60;1.20;;;23.70;48.40;;;;;;5148148;27;48352;-73
2023/09/01 00:33:28;;;;;;;1.15;1.05;;;23.70;48.30;;;;;;5148595;27;45273;-75
2023/09/01 00:35:55;;;;;;;1.25;1.15;;;23.70;48.40;;;;;;5149642;27;45286;-75
2023/09/01 00:38:21;;;;;;;2.10;1.33;;;23.70;48.40;;;;;;5149326;27;45202;-76
2023/09/01 00:40:49;;;;;;;1.40;1.00;;;23.70;48.50;;;;;;5148797;27;46726;-74
2023/09/01 00:43:15;;;;;;;1.35;1.10;;;23.70;48.50;;;;;;5149346;27;45229;-75
2023/09/01 00:45:42;;;;;;;2.03;1.00;;;23.70;48.50;;;;;;5149284;27;45298;-74
2023/09/01 00:48:09;;;;;;;1.30;1.17;;;23.70;48.60;;;;;;5149297;27;45461;-75
2023/09/01 00:50:37;;;;;;;1.80;1.02;;;23.70;48.60;;;;;;5149357;27;46372;-74
2023/09/01 00:53:05;;;;;;;1.60;1.30;;;23.70;48.60;;;;;;5149146;27;45317;-75
2023/09/01 00:55:32;;;;;;;1.23;0.98;;;23.70;48.60;;;;;;5149958;27;45257;-76
2023/09/01 00:57:59;;;;;;;1.52;1.10;;;23.60;48.50;;;;;;5148978;27;45256;-74
2023/09/01 01:00:26;;;;;;;1.50;1.30;;;23.60;48.70;;;;;;5148924;27;46472;-75
2023/09/01 01:02:53;;;;;;;1.38;1.20;;;23.60;48.70;;;;;;5148604;27;45307;-75
2023/09/01 01:05:22;;;;;;;1.35;1.17;;;23.60;48.70;;;;;;5148734;27;45250;-75
2023/09/01 01:07:54;;;;;;;1.08;0.98;;;23.60;48.80;;;;;;5148312;27;45456;-75
2023/09/01 01:10:24;;;;;;;1.95;1.20;;;23.60;48.70;;;;;;5147958;27;45566;-74
2023/09/01 01:12:53;;;;;;;2.35;1.30;;;23.60;48.90;;;;;;5148391;27;45244;-75
2023/09/01 01:15:22;;;;;;;1.90;1.13;;;23.60;48.80;;;;;;5148574;27;45339;-74
2023/09/01 01:17:49;;;;;;;1.23;1.10;;;23.60;48.80;;;;;;5148384;27;45282;-74
2023/09/01 01:20:26;;;;;;;1.60;1.20;;;23.50;48.80;;;;;;5149066;27;45504;-74
2023/09/01 01:23:06;;;;;;;1.27;1.08;;;23.60;48.90;;;;;;5151342;27;45221;-75
2023/09/01 01:25:32;;;;;;;1.35;1.10;;;23.60;48.90;;;;;;5151889;27;45217;-75
2023/09/01 01:28:02;;;;;;;1.10;1.00;;;23.60;48.90;;;;;;5151270;27;45256;-75
2023/09/01 01:30:29;;;;;;;2.63;1.30;;;23.60;49.00;;;;;;5151327;27;45306;-74
2023/09/01 01:32:56;;;;;;;1.88;1.17;;;23.50;48.90;;;;;;5151707;27;45354;-74
2023/09/01 01:35:27;;;;;;;1.95;1.00;;;23.50;49.00;;;;;;5151715;27;45449;-75
2023/09/01 01:37:56;;;;;;;1.58;1.08;;;23.50;48.90;;;;;;5151551;27;45475;-74
2023/09/01 01:40:24;;;;;;;1.20;1.10;;;23.50;49.10;;;;;;5151416;27;45340;-75
2023/09/01 01:42:52;;;;;;;2.22;1.10;;;23.50;49.10;;;;;;5151597;27;45203;-74
2023/09/01 01:45:20;;;;;;;2.03;1.17;;;23.50;49.10;;;;;;5151529;27;45158;-75
2023/09/01 01:47:47;;;;;;;1.33;0.85;;;23.50;49.10;;;;;;5151573;27;45627;-75
2023/09/01 01:50:14;;;;;;;1.45;1.17;;;23.50;49.20;;;;;;5151251;27;46491;-74
2023/09/01 01:52:41;;;;;;;1.40;1.10;;;23.50;49.20;;;;;;5151488;27;45309;-75
2023/09/01 01:55:08;;;;;;;1.10;0.90;;;23.50;49.20;;;;;;5151462;27;45303;-74
2023/09/01 01:57:37;;;;;;;1.83;1.10;;;23.50;49.20;;;;;;5151258;27;45282;-74
2023/09/01 02:00:11;;;;;;;1.20;1.10;;;23.50;49.30;;;;;;5151160;27;46463;-75
2023/09/01 02:02:38;;;;;;;1.80;1.10;;;23.50;49.30;;;;;;5151460;27;45328;-74
2023/09/01 02:05:06;;;;;;;1.20;1.08;;;23.50;49.30;;;;;;5151349;27;45282;-74
2023/09/01 02:07:33;;;;;;;1.92;1.00;;;23.50;49.40;;;;;;5151331;27;45482;-74
2023/09/01 02:10:00;;;;;;;2.05;1.23;;;23.50;49.40;;;;;;5150920;27;45390;-74
2023/09/01 02:12:27;;;;;;;1.17;1.00;;;23.50;49.30;;;;;;5150444;27;45234;-74
2023/09/01 02:14:55;;;;;;;1.20;0.85;;;23.50;49.40;;;;;;5151207;27;45283;-74
2023/09/01 02:17:22;;;;;;;1.77;1.10;;;23.50;49.40;;;;;;5150564;27;45182;-74
2023/09/01 02:19:49;;;;;;;0.73;0.73;;;23.40;49.40;;;;;;5150657;27;46654;-75
2023/09/01 02:22:15;;;;;;;1.05;0.95;;;23.40;49.50;;;;;;5150764;27;45375;-74
2023/09/01 02:24:42;;;;;;;2.08;1.10;;;23.40;49.60;;;;;;5150907;27;45329;-74
2023/09/01 02:27:09;;;;;;;1.20;1.10;;;23.40;49.60;;;;;;5151595;27;45225;-75
2023/09/01 02:29:36;;;;;;;1.10;1.00;;;23.40;49.70;;;;;;5150603;27;46300;-75
2023/09/01 02:32:10;;;;;;;1.23;1.13;;;23.40;49.60;;;;;;5149616;27;45245;-75
2023/09/01 02:34:37;;;;;;;2.03;1.30;;;23.40;49.60;;;;;;5148258;27;45254;-75
2023/09/01 02:37:04;;;;;;;1.13;0.98;;;23.40;49.70;;;;;;5150822;27;45399;-75
2023/09/01 02:39:31;;;;;;;1.27;1.10;;;23.40;49.70;;;;;;5150617;27;46473;-75
2023/09/01 02:42:00;;;;;;;1.02;1.02;;;23.40;49.70;;;;;;5150274;27;45285;-75
2023/09/01 02:44:26;;;;;;;1.17;0.95;;;23.40;49.60;;;;;;5150507;27;45205;-74
2023/09/01 02:46:53;;;;;;;2.45;0.90;;;23.40;49.70;;;;;;5150705;27;45253;-74
2023/09/01 02:49:21;;;;;;;0.95;0.85;;;23.40;49.80;;;;;;5150121;27;46385;-75
2023/09/01 02:51:48;;;;;;;1.55;1.13;;;23.40;49.80;;;;;;5150320;27;45371;-75
2023/09/01 02:54:15;;;;;;;3.55;1.38;;;23.40;49.90;;;;;;5150454;27;45224;-74
2023/09/01 02:56:42;;;;;;;1.10;1.00;;;23.40;49.90;;;;;;5150270;27;45173;-75
2023/09/01 02:59:09;;;;;;;1.25;1.10;;;23.40;49.90;;;;;;5149999;27;46414;-74
2023/09/01 03:01:36;;;;;;;1.02;0.95;;;23.40;50.00;;;;;;5150356;27;45314;-73
2023/09/01 03:04:06;;;;;;;1.38;1.20;;;23.30;49.90;;;;;;5149519;27;45320;-75
2023/09/01 03:06:35;;;;;;;2.25;0.95;;;23.30;49.90;;;;;;5150373;27;45477;-75
2023/09/01 03:09:02;;;;;;;2.30;0.90;;;23.30;50.00;;;;;;5149848;27;46972;-75
2023/09/01 03:11:29;;;;;;;1.10;1.00;;;23.30;50.00;;;;;;5149995;27;45369;-74
2023/09/01 03:13:56;;;;;;;0.85;0.82;;;23.30;50.10;;;;;;5149937;27;45243;-74
2023/09/01 03:16:23;;;;;;;1.63;0.90;;;23.30;50.00;;;;;;5150066;27;45243;-75
2023/09/01 03:18:52;;;;;;;2.35;0.90;;;23.30;50.00;;;;;;5149842;27;45751;-75
2023/09/01 03:21:19;;;;;;;0.60;0.60;;;23.30;50.00;;;;;;5149765;27;45304;-75
2023/09/01 03:23:48;;;;;;;1.05;0.90;;;23.30;50.00;;;;;;5150128;27;45239;-75
2023/09/01 03:26:15;;;;;;;1.48;0.73;;;23.30;50.00;;;;;;5149671;27;45454;-74
2023/09/01 03:28:42;;;;;;;0.85;0.77;;;23.30;50.10;;;;;;5149942;27;45376;-75
2023/09/01 03:31:10;;;;;;;1.88;1.00;;;23.30;50.10;;;;;;5149577;27;45317;-75
2023/09/01 03:33:37;;;;;;;0.85;0.85;;;23.30;50.20;;;;;;5149504;27;45184;-74
2023/09/01 03:36:07;;;;;;;1.10;0.98;;;23.30;50.20;;;;;;5150160;27;45284;-74
2023/09/01 03:38:34;;;;;;;1.23;1.00;;;23.30;50.20;;;;;;5149567;27;46738;-75
2023/09/01 03:41:04;;;;;;;1.65;0.90;;;23.30;50.20;;;;;;5149620;27;45162;-75
2023/09/01 03:43:31;;;;;;;1.50;0.98;;;23.30;50.20;;;;;;5149718;27;45299;-75
2023/09/01 03:45:58;;;;;;;1.27;1.00;;;23.30;50.20;;;;;;5149550;27;45516;-74
2023/09/01 03:48:25;;;;;;;0.82;0.80;;;23.30;50.20;;;;;;5149534;27;45388;-74
2023/09/01 03:51:06;;;;;;;1.13;1.05;;;23.30;50.20;;;;;;5148664;27;45300;-73
2023/09/01 03:53:32;;;;;;;1.70;1.00;;;23.30;50.20;;;;;;5149412;27;45407;-74
2023/09/01 03:56:01;;;;;;;2.30;0.82;;;23.30;50.30;;;;;;5148575;27;45417;-74
2023/09/01 03:58:29;;;;;;;1.70;1.00;;;23.30;50.30;;;;;;5149024;27;45570;-73
2023/09/01 04:00:56;;;;;;;1.20;1.10;;;23.30;50.50;;;;;;5148982;27;45223;-73
2023/09/01 04:03:22;;;;;;;0.80;0.80;;;23.30;50.50;;;;;;5149352;27;45305;-73
2023/09/01 04:05:49;;;;;;;0.95;0.95;;;23.20;50.50;;;;;;5148997;27;45451;-74
2023/09/01 04:08:16;;;;;;;2.22;0.90;;;23.20;50.60;;;;;;5149030;27;45714;-73
2023/09/01 04:10:45;;;;;;;0.95;0.88;;;23.20;50.70;;;;;;5149174;27;45196;-73
2023/09/01 04:13:12;;;;;;;1.45;0.82;;;23.20;50.60;;;;;;5149180;27;45231;-73
2023/09/01 04:15:40;;;;;;;1.00;0.82;;;23.20;50.70;;;;;;5149279;27;45221;-73
2023/09/01 04:18:07;;;;;;;0.80;0.80;;;23.20;50.70;;;;;;5148774;27;45264;-73
2023/09/01 04:20:34;;;;;;;1.83;0.90;;;23.20;50.70;;;;;;5148865;27;45173;-73
2023/09/01 04:23:00;;;;;;;1.35;0.70;;;23.20;50.90;;;;;;5149055;27;45257;-73
2023/09/01 04:25:27;;;;;;;1.02;0.90;;;23.20;51.50;;;;;;5149045;27;45403;-73
2023/09/01 04:27:54;;;;;;;1.08;1.00;;;23.20;50.90;;;;;;5148973;27;46532;-73
2023/09/01 04:30:21;;;;;;;1.63;0.93;;;23.10;50.80;;;;;;5148714;27;45196;-74
2023/09/01 04:32:49;;;;;;;0.80;0.80;;;23.10;50.90;;;;;;5148900;27;45180;-74
2023/09/01 04:35:16;;;;;;;0.95;0.80;;;23.10;50.90;;;;;;5149205;27;45513;-74
2023/09/01 04:37:43;;;;;;;1.35;0.93;;;23.10;50.80;;;;;;5148613;27;46425;-73
2023/09/01 04:40:11;;;;;;;1.25;1.02;;;23.10;50.90;;;;;;5147955;27;45260;-74
2023/09/01 04:42:38;;;;;;;1.02;0.70;;;23.10;51.00;;;;;;5148790;27;45222;-74
2023/09/01 04:45:06;;;;;;;1.00;0.88;;;23.00;50.90;;;;;;5149584;27;45233;-73
2023/09/01 04:47:33;;;;;;;0.82;0.82;;;23.00;51.00;;;;;;5148764;27;45432;-74
2023/09/01 04:50:02;;;;;;;0.73;0.73;;;23.00;50.90;;;;;;5148613;27;45234;-74
2023/09/01 04:52:29;;;;;;;1.02;0.95;;;23.00;51.00;;;;;;5148661;27;45303;-73
2023/09/01 04:54:56;;;;;;;0.70;0.70;;;23.00;50.90;;;;;;5149657;27;45277;-73
2023/09/01 04:57:22;;;;;;;1.17;1.08;;;23.00;51.00;;;;;;5151548;27;48258;-73
2023/09/01 04:59:50;;;;;;;1.00;1.00;;;23.00;51.00;;;;;;5152275;27;45313;-74
2023/09/01 05:02:17;;;;;;;1.10;0.98;;;23.00;50.90;;;;;;5152450;27;45287;-73
2023/09/01 05:04:44;;;;;;;2.33;0.70;;;23.00;51.00;;;;;;5152456;27;45481;-73
2023/09/01 05:07:12;;;;;;;0.60;0.60;;;23.00;51.00;;;;;;5151952;27;45424;-73
2023/09/01 05:09:39;;;;;;;1.00;0.90;;;23.00;51.00;;;;;;5152137;27;45530;-75
2023/09/01 05:12:06;;;;;;;0.80;0.80;;;23.00;51.00;;;;;;5152198;27;45370;-74
2023/09/01 05:14:33;;;;;;;0.77;0.75;;;23.00;51.00;;;;;;5152297;27;45352;-74
2023/09/01 05:17:00;;;;;;;1.35;0.90;;;23.00;51.00;;;;;;5151631;27;45248;-74
2023/09/01 05:19:27;;;;;;;0.90;0.80;;;23.00;51.00;;;;;;5151640;27;45313;-74
2023/09/01 05:21:55;;;;;;;0.90;0.90;;;23.00;51.00;;;;;;5152187;27;45284;-74
2023/09/01 05:24:23;;;;;;;1.85;1.00;;;23.00;51.00;;;;;;5151248;27;45523;-74
2023/09/01 05:26:50;;;;;;;0.70;0.70;;;23.00;51.60;;;;;;5150591;27;45477;-74
2023/09/01 05:29:17;;;;;;;0.93;0.68;;;23.00;51.00;;;;;;5151747;27;45298;-74
2023/09/01 05:31:43;;;;;;;1.00;0.88;;;22.90;51.00;;;;;;5151904;27;45346;-74
2023/09/01 05:34:10;;;;;;;0.75;0.75;;;22.90;51.10;;;;;;5151829;27;45494;-74
2023/09/01 05:36:37;;;;;;;0.68;0.60;;;22.90;51.00;;;;;;5151150;27;45230;-74
2023/09/01 05:39:04;;;;;;;2.35;0.98;;;22.90;51.00;;;;;;5151397;27;45249;-74
2023/09/01 05:41:32;;;;;;;1.02;0.90;;;22.90;51.00;;;;;;5151875;27;45326;-74
2023/09/01 05:43:59;;;;;;;0.90;0.88;;;22.90;51.10;;;;;;5151782;27;45375;-74
2023/09/01 05:46:26;;;;;;;1.20;1.10;;;22.90;51.00;;;;;;5151057;27;45203;-74
2023/09/01 05:48:53;;;;;;;0.70;0.70;;;22.90;51.10;;;;;;5151306;27;45199;-74
2023/09/01 05:51:20;;;;;;;0.73;0.73;;;22.90;51.00;;;;;;5151504;27;45243;-74
2023/09/01 05:53:47;;;;;;;1.60;0.80;;;22.90;51.10;;;;;;5151585;27;45466;-74
2023/09/01 05:56:14;;;;;;;0.80;0.80;;;22.90;51.20;;;;;;5151217;27;45303;-74
2023/09/01 05:58:42;;;;;;;0.60;0.60;;;22.90;51.10;;;;;;5151320;27;45137;-74
2023/09/01 06:01:10;;;;;;;1.08;0.80;;;22.90;51.20;;;;;;5151552;27;45206;-74
2023/09/01 06:03:37;;;;;;;0.70;0.70;;;22.90;51.20;;;;;;5151480;27;45465;-73
2023/09/01 06:06:03;;;;;;;0.60;0.60;;;22.90;51.10;;;;;;5150165;27;45466;-74
2023/09/01 06:08:30;;;;;;;0.98;0.88;;;22.90;51.20;;;;;;5150401;27;45353;-73
2023/09/01 06:11:04;;;;;;;1.67;0.90;;;22.90;51.20;;;;;;5150744;27;45270;-74
2023/09/01 06:13:31;;;;;;;1.65;1.10;;;22.90;51.20;;;;;;5150998;27;45375;-74
2023/09/01 06:15:59;;;;;;;0.82;0.82;;;22.90;51.20;;;;;;5150854;27;45233;-74
2023/09/01 06:18:26;;;;;;;1.48;0.77;;;22.90;51.20;;;;;;5150642;27;45313;-74
2023/09/01 06:20:52;;;;;;;1.23;0.80;;;22.90;51.20;;;;;;5151133;27;45285;-74
2023/09/01 06:23:19;;;;;;;0.80;0.80;;;22.90;51.20;;;;;;5151138;27;45366;-74
2023/09/01 06:25:46;;;;;;;0.95;0.85;;;22.90;51.20;;;;;;5150689;27;47277;-74
2023/09/01 06:28:13;;;;;;;0.70;0.70;;;22.90;51.20;;;;;;5150800;27;45284;-72
2023/09/01 06:30:41;;;;;;;0.93;0.70;;;22.90;51.20;;;;;;5150778;27;45247;-72
2023/09/01 06:33:09;;;;;;;0.75;0.75;;;22.90;51.20;;;;;;5151760;27;45440;-73
2023/09/01 06:35:36;;;;;;;0.85;0.70;;;22.90;51.20;;;;;;5151886;27;45309;-72
2023/09/01 06:38:05;;;;;;;0.85;0.68;;;22.90;51.20;;;;;;5150472;27;45222;-72
2023/09/01 06:40:32;;;;;;;0.85;0.80;;;22.90;51.20;;;;;;5150632;27;45272;-74
2023/09/01 06:42:59;;;;;;;0.77;0.65;;;22.90;51.20;;;;;;5150715;27;45434;-73
2023/09/01 06:45:26;;;;;;;0.85;0.82;;;22.90;51.20;;;;;;5150349;27;45282;-73
2023/09/01 06:47:55;;;;;;;0.63;0.63;;;22.90;51.20;;;;;;5150579;27;45228;-72
2023/09/01 06:50:23;;;;;;;1.20;0.80;;;22.90;51.20;;;;;;5150538;27;45391;-72
2023/09/01 06:52:50;;;;;;;0.90;0.90;;;22.90;51.20;;;;;;5150587;27;45379;-74
2023/09/01 06:55:17;;;;;;;1.15;0.90;;;22.90;51.20;;;;;;5149974;27;46678;-73
2023/09/01 06:57:44;;;;;;;0.73;0.63;;;22.90;51.20;;;;;;5149124;27;46056;-74
2023/09/01 07:00:12;;;;;;;0.82;0.75;;;22.90;51.30;;;;;;5150202;27;45196;-73
2023/09/01 07:02:39;;;;;;;1.02;0.88;;;22.90;51.30;;;;;;5151940;27;45400;-74
2023/09/01 07:05:06;;;;;;;2.45;1.05;;;22.90;51.20;;;;;;5150046;27;45603;-73
2023/09/01 07:07:35;;;;;;;1.05;0.90;;;22.90;51.30;;;;;;5149864;27;45444;-74
2023/09/01 07:10:01;;;;;;;1.25;1.00;;;22.90;51.30;;;;;;5150135;27;45329;-74
2023/09/01 07:12:28;;;;;;;1.30;0.70;;;22.90;51.30;;;;;;5150402;27;45374;-73
2023/09/01 07:14:55;;;;;;;0.80;0.80;;;22.90;51.30;;;;;;5149928;27;46389;-73
2023/09/01 07:17:22;;;;;;;1.92;0.90;;;22.90;51.30;;;;;;5149614;27;45213;-73
2023/09/01 07:19:49;;;;;;;0.60;0.60;;;22.90;51.40;;;;;;5149796;27;45237;-73
2023/09/01 07:22:16;;;;;;;2.78;0.90;;;22.90;51.30;;;;;;5150380;27;45189;-73
2023/09/01 07:24:44;;;;;;;0.80;0.80;;;22.90;51.40;;;;;;5149493;27;46721;-74
2023/09/01 07:27:11;;;;;;;1.02;0.90;;;22.90;51.40;;;;;;5149761;27;45355;-74
2023/09/01 07:29:37;;;;;;;0.80;0.80;;;22.90;51.40;;;;;;5150026;27;45345;-75
2023/09/01 07:32:05;;;;;;;1.52;1.00;;;22.90;51.40;;;;;;5150102;27;45314;-75
2023/09/01 07:34:33;;;;;;;2.15;0.80;;;22.90;51.40;;;;;;5149479;27;46714;-72
2023/09/01 07:37:00;;;;;;;1.48;0.85;;;23.00;51.30;;;;;;5149632;27;45295;-73
2023/09/01 07:39:27;;;;;;;1.10;1.00;;;23.00;51.90;;;;;;5149193;27;45240;-74
2023/09/01 07:41:55;;;;;;;0.90;0.77;;;23.00;51.20;;;;;;5149354;27;45403;-75
2023/09/01 07:44:22;;;;;;;0.57;0.57;;;23.00;51.20;;;;;;5149582;27;45650;-73
2023/09/01 07:46:49;;;;;;;1.63;0.90;;;23.00;51.20;;;;;;5149452;27;45301;-74
2023/09/01 07:49:16;;;;;;;0.90;0.90;;;23.00;51.30;;;;;;5149641;27;45282;-73
2023/09/01 07:51:44;;;;;;;0.90;0.90;;;23.10;51.30;;;;;;5149617;27;45174;-73
2023/09/01 07:54:10;;;;;;;1.38;0.90;;;23.10;51.30;;;;;;5149311;27;45799;-73
2023/09/01 07:56:37;;;;;;;0.80;0.80;;;23.10;51.30;;;;;;5148028;27;45110;-73
2023/09/01 07:59:06;;;;;;;1.73;0.80;;;23.10;51.20;;;;;;5148504;27;45344;-72
2023/09/01 08:01:32;;;;;;;4.20;0.65;;;23.10;51.30;;;;;;5149981;27;45192;-73
2023/09/01 08:04:00;;;;;;;0.75;0.75;;;23.20;51.30;;;;;;5148041;27;45328;-73
2023/09/01 08:06:29;;;;;;;0.80;0.80;;;23.20;51.30;;;;;;5149689;27;45183;-74
2023/09/01 08:08:56;;;;;;;0.50;0.50;;;23.20;51.30;;;;;;5149467;27;45302;-73
2023/09/01 08:11:23;;;;;;;1.13;1.00;;;23.20;51.30;;;;;;5149696;27;45184;-74
2023/09/01 08:13:49;;;;;;;1.35;0.93;;;23.20;51.30;;;;;;5148977;27;46347;-74
2023/09/01 08:16:18;;;;;;;2.03;0.88;;;23.30;51.50;;;;;;5149838;27;45260;-74
2023/09/01 08:18:45;;;;;;;0.90;0.90;;;23.30;51.50;;;;;;5149472;27;45283;-73
2023/09/01 08:21:12;;;;;;;1.63;0.98;;;23.30;51.50;;;;;;5149797;27;45286;-72
2023/09/01 08:23:40;;;;;;;0.75;0.68;;;23.30;51.50;;;;;;5148972;27;45459;-73
2023/09/01 08:26:08;;;;;;;1.50;0.95;;;23.30;51.40;;;;;;5149099;27;45204;-73
2023/09/01 08:28:34;;;;;;;0.73;0.68;;;23.40;51.50;;;;;;5148077;27;45416;-74
2023/09/01 08:31:02;;;;;;;2.13;1.00;;;23.40;51.60;;;;;;5148517;27;45472;-73
2023/09/01 08:33:31;;;;;;;1.63;0.80;;;23.50;51.50;;;;;;5148388;27;48655;-73
2023/09/01 08:36:00;;;;;;;1.90;0.80;;;23.50;51.40;;;;;;5148079;27;45381;-73
2023/09/01 08:38:27;;;;;;;1.17;0.93;;;23.50;51.30;;;;;;5137073;27;45294;-74
2023/09/01 08:40:59;;;;;;;2.40;1.00;;;23.50;51.30;;;;;;5143972;27;45496;-76
2023/09/01 08:43:27;;;;;;;0.70;0.70;;;23.60;51.60;;;;;;5148567;27;46550;-74
2023/09/01 08:45:53;;;;;;;0.73;0.60;;;23.60;51.60;;;;;;5147530;27;45238;-72
2023/09/01 08:48:20;;;;;;;0.70;0.70;;;23.60;52.10;;;;;;5148879;27;45286;-74
2023/09/01 08:50:49;;;;;;;2.20;0.82;;;23.70;52.20;;;;;;5148758;27;45231;-74
2023/09/01 08:53:16;;;;;;;4.28;1.00;;;23.70;52.60;;;;;;5147074;27;45606;-73
2023/09/01 08:55:43;;;;;;;2.35;0.93;;;23.70;52.90;;;;;;5147327;27;45459;-74
2023/09/01 08:58:10;;;;;;;1.40;1.13;;;23.80;52.90;;;;;;5147115;27;45421;-75
2023/09/01 09:00:37;;;;;;;2.33;1.00;;;23.80;53.00;;;;;;5149034;27;45380;-72
2023/09/01 09:03:05;;;;;;;1.67;0.90;;;23.80;53.20;;;;;;5152895;27;45453;-73
2023/09/01 09:05:33;;;;;;;0.85;0.63;;;23.80;53.20;;;;;;5144662;27;45285;-74
2023/09/01 09:08:03;;;;;;;1.58;0.95;;;23.90;53.20;;;;;;5147744;27;45350;-73
2023/09/01 09:10:36;;;;;;;0.88;0.80;;;23.90;53.10;;;;;;5148644;27;45219;-72
2023/09/01 09:13:04;;;;;;;1.88;0.90;;;23.90;53.20;;;;;;5148062;27;45421;-72
2023/09/01 09:15:31;;;;;;;1.20;0.85;;;24.00;53.10;;;;;;5147434;27;45380;-72
2023/09/01 09:17:58;;;;;;;2.05;1.08;;;24.00;53.10;;;;;;5147172;27;45529;-74
2023/09/01 09:20:36;;;;;;;1.10;1.00;;;24.00;53.10;;;;;;5145457;27;45330;-76
2023/09/01 09:23:05;;;;;;;2.65;0.75;;;24.10;53.20;;;;;;5141927;27;45463;-76
2023/09/01 09:25:36;;;;;;;1.67;1.08;;;24.10;53.10;;;;;;5147759;27;45182;-75
2023/09/01 09:28:12;;;;;;;1.83;1.30;;;24.10;53.20;;;;;;5142644;27;45231;-75
2023/09/01 09:30:48;;;;;;;0.90;0.80;;;24.10;53.20;;;;;;5148367;27;45222;-75
2023/09/01 09:33:15;;;;;;;1.00;0.70;;;24.10;53.20;;;;;;5147915;27;45633;-74
2023/09/01 09:35:49;;;;;;;2.30;0.82;;;24.10;53.20;;;;;;5148128;27;45287;-74
2023/09/01 09:38:18;;;;;;;2.70;1.05;;;24.10;53.10;;;;;;5148229;27;45275;-74
2023/09/01 09:40:56;;;;;;;2.83;1.15;;;24.10;52.90;;;;;;5148767;27;45285;-74
2023/09/01 09:43:23;;;;;;;1.00;0.77;;;24.20;53.10;;;;;;5151366;27;45277;-72
2023/09/01 09:45:51;;;;;;;7.78;1.13;;;24.20;53.00;;;;;;5151349;27;45385;-73
2023/09/01 09:48:18;;;;;;;2.25;0.80;;;24.20;53.00;;;;;;5152274;27;45315;-73
2023/09/01 09:50:45;;;;;;;2.53;0.80;;;24.30;52.90;;;;;;5151933;27;45584;-73
2023/09/01 09:53:12;;;;;;;2.47;1.00;;;24.30;52.80;;;;;;5151501;27;46427;-73
2023/09/01 09:55:46;;;;;;;1.77;0.82;;;24.30;52.80;;;;;;5151308;27;45165;-73
2023/09/01 09:58:13;;;;;;;2.25;1.00;;;24.30;52.70;;;;;;5151436;27;45227;-73
2023/09/01 10:00:41;;;;;;;2.97;0.90;;;24.40;52.70;;;;;;5151653;27;45313;-73
2023/09/01 10:03:08;;;;;;;2.00;1.10;;;24.40;52.70;;;;;;5151752;27;45582;-73
2023/09/01 10:05:35;;;;;;;1.75;0.90;;;24.40;52.60;;;;;;5151308;27;45277;-73
2023/09/01 10:08:04;;;;;;;1.10;1.00;;;24.50;52.60;;;;;;5151157;27;45206;-74
2023/09/01 10:10:33;;;;;;;2.97;0.93;;;24.50;52.50;;;;;;5151486;27;45236;-74
2023/09/01 10:13:02;;;;;;;0.70;0.70;;;24.50;52.40;;;;;;5150936;27;45319;-74
2023/09/01 10:15:29;;;;;;;2.95;0.90;;;24.50;52.40;;;;;;5151170;27;45179;-74
2023/09/01 10:17:56;;;;;;;2.28;0.95;;;24.50;52.40;;;;;;5151134;27;45334;-73
2023/09/01 10:20:23;;;;;;;1.20;0.82;;;24.50;52.40;;;;;;5150383;27;45463;-72
2023/09/01 10:22:50;;;;;;;1.27;0.95;;;24.50;52.30;;;;;;5150521;27;45352;-73
2023/09/01 10:25:17;;;;;;;1.75;0.70;;;24.60;52.30;;;;;;5150891;27;45264;-74
2023/09/01 10:28:04;;;;;;;0.93;0.85;;;24.60;52.40;;;;;;5151075;27;45268;-73
2023/09/01 10:30:32;;;;;;;0.85;0.70;;;24.60;52.30;;;;;;5151067;27;45416;-74
2023/09/01 10:33:07;;;;;;;1.85;0.88;;;24.70;52.30;;;;;;5150884;27;47566;-74
2023/09/01 10:35:38;;;;;;;3.53;0.80;;;24.70;52.20;;;;;;5150776;27;45338;-74
2023/09/01 10:38:18;;;;;;;0.98;0.70;;;24.70;52.10;;;;;;5150851;27;45377;-74
2023/09/01 10:40:47;;;;;;;2.33;0.88;;;24.80;52.10;;;;;;5151701;27;45526;-73
2023/09/01 10:43:34;;;;;;;1.35;0.75;;;24.80;52.00;;;;;;5150794;27;45607;-74
2023/09/01 10:46:24;;;;;;;0.60;0.60;;;24.90;52.00;;;;;;5150496;27;45249;-74
2023/09/01 10:48:51;;;;;;;1.58;0.80;;;24.90;51.80;;;;;;5149587;27;45348;-74
2023/09/01 10:51:18;;;;;;;0.82;0.73;;;25.00;51.80;;;;;;5150583;27;45171;-73
2023/09/01 10:53:45;;;;;;;0.85;0.80;;;25.00;51.70;;;;;;5150345;27;47327;-74
2023/09/01 10:56:12;;;;;;;2.22;0.82;;;25.10;51.70;;;;;;5150190;27;45243;-74
2023/09/01 10:58:45;;;;;;;0.90;0.90;;;25.10;51.70;;;;;;5151339;27;45297;-74
2023/09/01 11:01:32;;;;;;;1.17;0.90;;;25.20;51.70;;;;;;5150539;27;45281;-74
2023/09/01 11:04:30;;;;;;;1.30;0.98;;;25.30;51.70;;;;;;5150029;27;48247;-74
2023/09/01 11:07:04;;;;;;;0.60;0.60;;;25.30;51.60;;;;;;5150113;27;45263;-73
2023/09/01 11:09:52;;;;;;;0.80;0.80;;;25.40;51.50;;;;;;5150357;27;45351;-73
2023/09/01 11:12:19;;;;;;;1.10;0.65;;;25.50;51.40;;;;;;5149791;27;45223;-75
2023/09/01 11:14:57;;;;;;;0.70;0.70;;;25.60;51.40;;;;;;5149682;27;45345;-72
2023/09/01 11:17:38;;;;;;;1.33;0.70;;;25.60;51.20;;;;;;5149159;27;45332;-73
2023/09/01 11:20:08;;;;;;;1.17;0.77;;;25.70;51.10;;;;;;5149308;27;45301;-74
2023/09/01 11:22:36;;;;;;;1.08;0.50;;;25.80;51.00;;;;;;5149824;27;45433;-74
2023/09/01 11:25:03;;;;;;;1.95;0.70;;;25.90;51.00;;;;;;5149861;27;45476;-74
2023/09/01 11:27:30;;;;;;;0.73;0.73;;;26.00;50.90;;;;;;5149870;27;45261;-74
2023/09/01 11:30:02;;;;;;;0.60;0.60;;;26.00;50.80;;;;;;5149854;27;45340;-74
2023/09/01 11:32:29;;;;;;;0.95;0.60;;;26.10;50.70;;;;;;5150200;27;45126;-74
2023/09/01 11:34:56;;;;;;;1.15;0.80;;;26.20;50.70;;;;;;5149594;27;45290;-74
2023/09/01 11:37:39;;;;;;;1.33;0.90;;;26.30;50.50;;;;;;5149650;27;45309;-75
2023/09/01 11:40:09;;;;;;;1.98;0.93;;;26.40;50.40;;;;;;5149970;27;45303;-75
2023/09/01 11:42:39;;;;;;;1.60;1.10;;;26.40;50.30;;;;;;5150020;27;45202;-76
2023/09/01 11:45:09;;;;;;;1.08;0.80;;;26.50;50.20;;;;;;5149374;27;45483;-74
2023/09/01 11:47:36;;;;;;;1.08;0.90;;;26.50;50.20;;;;;;5149767;27;45352;-75
2023/09/01 11:50:02;;;;;;;0.82;0.80;;;26.60;50.20;;;;;;5149451;27;45248;-75
2023/09/01 11:52:29;;;;;;;1.92;0.60;;;26.70;50.10;;;;;;5149765;27;45580;-76
2023/09/01 11:54:57;;;;;;;0.85;0.70;;;26.80;50.00;;;;;;5149179;27;45561;-75
2023/09/01 11:57:24;;;;;;;3.33;1.33;;;26.90;50.50;;;;;;5149290;27;45429;-75
2023/09/01 11:59:51;;;;;;;1.83;0.80;;;26.90;49.80;;;;;;5149299;27;45250;-75
2023/09/01 12:02:20;;;;;;;3.05;1.00;;;27.00;49.70;;;;;;5149692;27;45395;-75
2023/09/01 12:04:47;;;;;;;0.75;0.75;;;27.10;49.70;;;;;;5147854;27;46387;-75
2023/09/01 12:07:27;;;;;;;1.67;0.90;;;27.10;49.60;;;;;;5149266;27;45277;-75
2023/09/01 12:09:55;;;;;;;0.85;0.70;;;27.10;49.60;;;;;;5138963;27;45464;-74
2023/09/01 12:12:21;;;;;;;2.28;0.80;;;27.20;49.40;;;;;;5146583;27;45522;-74
2023/09/01 12:14:48;;;;;;;1.23;0.90;;;27.10;49.50;;;;;;5145425;27;46382;-75
2023/09/01 12:17:17;;;;;;;1.35;0.80;;;27.10;49.50;;;;;;5143804;27;45448;-74
2023/09/01 12:19:49;;;;;;;1.75;0.93;;;27.10;49.70;;;;;;5156593;27;45283;-75
2023/09/01 12:22:16;;;;;;;0.85;0.80;;;27.10;49.80;;;;;;5154895;27;45286;-75
2023/09/01 12:24:53;;;;;;;1.33;0.95;;;27.10;49.80;;;;;;5169911;27;46248;-76
2023/09/01 12:27:20;;;;;;;0.85;0.80;;;27.10;49.90;;;;;;5160784;27;45141;-75
2023/09/01 12:29:47;;;;;;;2.72;1.10;;;27.10;50.10;;;;;;5148293;27;45457;-74
2023/09/01 12:32:14;;;;;;;1.98;0.85;;;27.00;50.10;;;;;;5142950;27;45337;-73
2023/09/01 12:34:41;;;;;;;1.55;0.90;;;27.00;50.20;;;;;;5155558;27;47543;-74
2023/09/01 12:37:09;;;;;;;1.20;0.75;;;27.00;50.20;;;;;;5146967;27;45285;-73
2023/09/01 12:39:38;;;;;;;2.97;0.77;;;27.10;50.20;;;;;;5143118;27;45428;-74
2023/09/01 12:42:05;;;;;;;1.10;0.80;;;27.30;49.90;;;;;;5147228;27;45217;-74
2023/09/01 12:44:32;;;;;;;1.00;0.77;;;27.50;49.60;;;;;;5148361;27;45211;-74
2023/09/01 12:46:59;;;;;;;1.65;1.08;;;27.60;49.40;;;;;;5146634;27;45291;-75
2023/09/01 12:49:26;;;;;;;0.80;0.80;;;27.70;49.00;;;;;;5147501;27;45398;-74
2023/09/01 12:51:52;;;;;;;1.13;1.02;;;27.70;49.00;;;;;;5148848;27;45403;-74
2023/09/01 12:54:21;;;;;;;0.80;0.80;;;27.80;47.90;;;;;;5147828;27;45347;-74